createdAt,value
2019-04-30T00:00:47.502Z,91.50
2019-04-30T00:03:24.909Z,91.50
2019-04-30T00:05:57.375Z,91.50
2019-04-30T00:08:30.019Z,91.50
2019-04-30T00:10:57.185Z,91.40
2019-04-30T00:13:26.856Z,91.40
2019-04-30T00:15:58.740Z,91.60
2019-04-30T00:18:30.728Z,91.70
2019-04-30T00:20:59.481Z,91.90
2019-04-30T00:23:30.688Z,91.90
2019-04-30T00:26:06.239Z,92.00
2019-04-30T00:28:32.146Z,92.10
2019-04-30T00:31:01.870Z,91.90
2019-04-30T00:33:31.672Z,91.70
2019-04-30T00:36:01.412Z,92.00
2019-04-30T00:38:34.278Z,92.00
2019-04-30T00:41:06.799Z,92.00
2019-04-30T00:43:35.396Z,92.10
2019-04-30T00:46:05.806Z,92.10
2019-04-30T00:48:35.746Z,92.10
2019-04-30T00:51:07.471Z,92.00
2019-04-30T00:53:37.026Z,91.90
2019-04-30T00:56:06.775Z,92.00
2019-04-30T00:58:36.586Z,92.20
2019-04-30T01:01:29.553Z,92.20
2019-04-30T01:04:05.513Z,92.30
2019-04-30T01:06:38.382Z,92.40
2019-04-30T01:09:08.769Z,92.40
2019-04-30T01:11:39.862Z,92.20
2019-04-30T01:14:10.053Z,92.40
2019-04-30T01:16:39.828Z,92.50
2019-04-30T01:19:26.586Z,92.30
2019-04-30T01:21:47.035Z,92.30
2019-04-30T01:24:12.709Z,92.10
2019-04-30T01:26:42.546Z,92.60
2019-04-30T01:29:12.350Z,92.50
2019-04-30T01:31:42.096Z,92.30
2019-04-30T01:34:14.067Z,92.40
2019-04-30T01:36:43.470Z,92.40
2019-04-30T01:39:15.109Z,92.60
2019-04-30T01:41:44.973Z,92.70
2019-04-30T01:44:14.734Z,92.60
2019-04-30T01:46:48.274Z,92.30
2019-04-30T01:49:15.872Z,92.00
2019-04-30T01:51:45.648Z,92.00
2019-04-30T01:54:21.148Z,92.30
2019-04-30T01:57:13.787Z,92.60
2019-04-30T02:00:04.178Z,92.40
2019-04-30T02:02:35.639Z,92.10
2019-04-30T02:05:06.057Z,92.00
2019-04-30T02:07:35.885Z,91.80
2019-04-30T02:10:05.988Z,91.80
2019-04-30T02:12:35.829Z,91.70
2019-04-30T02:15:05.906Z,91.80
2019-04-30T02:17:35.716Z,91.70
2019-04-30T02:20:06.506Z,92.00
2019-04-30T02:22:36.277Z,91.90
2019-04-30T02:25:06.578Z,91.90
2019-04-30T02:27:36.332Z,91.80
2019-04-30T02:30:06.534Z,92.00
2019-04-30T02:32:36.353Z,92.10
2019-04-30T02:35:12.305Z,91.90
2019-04-30T02:38:00.981Z,92.00
2019-04-30T02:40:32.777Z,92.20
2019-04-30T02:43:03.508Z,92.40
2019-04-30T02:45:36.080Z,92.50
2019-04-30T02:48:06.092Z,92.30
2019-04-30T02:50:39.306Z,92.20
2019-04-30T02:53:29.650Z,92.10
2019-04-30T02:55:59.470Z,92.30
2019-04-30T02:58:40.840Z,92.40
2019-04-30T03:01:10.270Z,92.70
2019-04-30T03:03:42.722Z,92.70
2019-04-30T03:06:11.660Z,92.80
2019-04-30T03:08:41.486Z,92.80
2019-04-30T03:11:11.232Z,92.70
2019-04-30T03:13:42.812Z,92.60
2019-04-30T03:16:14.021Z,92.50
2019-04-30T03:19:19.625Z,92.60
2019-04-30T03:22:01.540Z,92.50
2019-04-30T03:24:31.321Z,91.90
2019-04-30T03:27:01.096Z,92.30
2019-04-30T03:29:30.842Z,92.00
2019-04-30T03:32:03.505Z,91.90
2019-04-30T03:34:33.581Z,92.20
2019-04-30T03:37:03.377Z,92.30
2019-04-30T03:39:34.002Z,92.30
2019-04-30T03:42:04.117Z,92.50
2019-04-30T03:44:39.704Z,92.40
2019-04-30T03:47:10.593Z,92.50
2019-04-30T03:49:40.338Z,92.30
2019-04-30T03:52:13.331Z,92.20
2019-04-30T03:54:49.431Z,92.50
2019-04-30T03:57:20.381Z,92.40
2019-04-30T03:59:50.405Z,92.20
2019-04-30T04:02:50.089Z,92.10
2019-04-30T04:05:39.967Z,92.00
2019-04-30T04:08:24.105Z,92.40
2019-04-30T04:11:00.542Z,92.20
2019-04-30T04:13:30.087Z,91.80
2019-04-30T04:16:00.962Z,92.00
2019-04-30T04:18:30.724Z,92.10
2019-04-30T04:21:11.518Z,91.70
2019-04-30T04:23:32.750Z,91.50
2019-04-30T04:26:02.832Z,92.20
2019-04-30T04:28:35.840Z,92.00
2019-04-30T04:31:05.542Z,92.10
2019-04-30T04:33:35.403Z,92.40
2019-04-30T04:36:05.165Z,92.40
2019-04-30T04:38:34.905Z,92.20
2019-04-30T04:41:10.315Z,92.20
2019-04-30T04:43:41.395Z,92.30
2019-04-30T04:46:13.978Z,92.40
2019-04-30T04:48:43.730Z,92.20
2019-04-30T04:51:27.698Z,91.90
2019-04-30T04:53:44.920Z,91.90
2019-04-30T04:56:14.704Z,92.40
2019-04-30T04:58:44.517Z,91.90
2019-04-30T05:01:14.406Z,91.80
2019-04-30T05:03:44.146Z,91.70
2019-04-30T05:06:13.992Z,91.60
2019-04-30T05:08:49.217Z,91.70
2019-04-30T05:11:19.225Z,91.60
2019-04-30T05:13:49.173Z,91.60
2019-04-30T05:16:20.258Z,91.50
2019-04-30T05:18:50.006Z,91.40
2019-04-30T05:21:19.724Z,91.50
2019-04-30T05:23:51.801Z,91.20
2019-04-30T05:26:22.932Z,90.90
2019-04-30T05:28:53.014Z,91.00
2019-04-30T05:31:22.835Z,91.00
2019-04-30T05:33:52.677Z,91.10
2019-04-30T05:36:22.512Z,91.00
2019-04-30T05:38:52.373Z,90.80
2019-04-30T05:41:22.179Z,90.80
2019-04-30T05:43:52.005Z,90.70
2019-04-30T05:46:23.694Z,90.60
2019-04-30T05:48:53.513Z,90.50
2019-04-30T05:51:23.298Z,90.70
2019-04-30T05:53:54.162Z,90.60
2019-04-30T05:56:23.967Z,90.70
2019-04-30T05:58:53.757Z,90.70
2019-04-30T06:01:24.348Z,90.60
2019-04-30T06:03:55.349Z,90.50
2019-04-30T06:06:25.313Z,90.50
2019-04-30T06:09:31.004Z,90.10
2019-04-30T06:12:00.338Z,89.90
2019-04-30T06:14:48.680Z,89.50
2019-04-30T06:17:11.802Z,89.40
2019-04-30T06:19:41.718Z,88.90
2019-04-30T06:22:11.695Z,88.60
2019-04-30T06:24:41.586Z,87.80
2019-04-30T06:27:11.373Z,87.70
2019-04-30T06:29:48.903Z,87.50
2019-04-30T06:32:20.937Z,87.90
2019-04-30T06:34:50.965Z,88.70
2019-04-30T06:37:21.035Z,89.10
2019-04-30T06:39:53.092Z,89.90
2019-04-30T06:42:23.010Z,89.90
2019-04-30T06:44:53.208Z,89.70
2019-04-30T06:47:32.825Z,89.50
2019-04-30T06:49:54.737Z,89.40
2019-04-30T06:52:24.821Z,89.40
2019-04-30T06:54:56.907Z,89.00
2019-04-30T06:57:26.866Z,88.30
2019-04-30T06:59:59.691Z,88.10
2019-04-30T07:02:30.922Z,88.60
2019-04-30T07:05:00.818Z,88.60
2019-04-30T07:07:37.087Z,87.70
2019-04-30T07:10:24.778Z,86.90
2019-04-30T07:12:58.967Z,87.10
2019-04-30T07:15:29.568Z,86.40
2019-04-30T07:17:59.629Z,86.60
2019-04-30T07:20:29.470Z,86.60
2019-04-30T07:23:02.960Z,86.30
2019-04-30T07:25:30.770Z,86.00
2019-04-30T07:28:00.641Z,85.40
2019-04-30T07:30:30.941Z,85.30
2019-04-30T07:33:06.705Z,86.00
2019-04-30T07:35:36.591Z,85.60
2019-04-30T07:38:06.436Z,85.20
2019-04-30T07:40:39.358Z,85.70
2019-04-30T07:43:09.234Z,85.50
2019-04-30T07:45:39.754Z,85.20
2019-04-30T07:48:09.761Z,84.40
2019-04-30T07:50:41.142Z,84.20
2019-04-30T07:53:11.894Z,84.10
2019-04-30T07:55:42.110Z,84.20
2019-04-30T07:58:12.070Z,84.40
2019-04-30T08:00:41.788Z,84.70
2019-04-30T08:03:20.891Z,84.20
2019-04-30T08:05:51.901Z,82.80
2019-04-30T08:08:25.523Z,81.70
2019-04-30T08:10:53.161Z,81.10
2019-04-30T08:13:23.423Z,80.30
2019-04-30T08:15:53.388Z,80.80
2019-04-30T08:18:23.224Z,80.60
2019-04-30T08:20:52.996Z,80.00
2019-04-30T08:23:34.013Z,79.90
2019-04-30T08:25:55.861Z,80.80
2019-04-30T08:28:25.636Z,81.00
2019-04-30T08:30:55.465Z,80.50
2019-04-30T08:33:44.164Z,80.70
2019-04-30T08:36:13.845Z,79.90
2019-04-30T08:38:43.597Z,80.70
2019-04-30T08:41:13.398Z,80.30
2019-04-30T08:43:43.137Z,80.10
2019-04-30T08:46:12.886Z,81.30
2019-04-30T08:48:50.495Z,80.50
2019-04-30T08:51:14.669Z,80.80
2019-04-30T08:53:44.665Z,79.80
2019-04-30T08:56:15.681Z,80.00
2019-04-30T08:58:45.481Z,80.50
2019-04-30T09:01:15.125Z,79.30
2019-04-30T09:03:44.684Z,79.10
2019-04-30T09:06:25.641Z,79.10
2019-04-30T09:08:59.317Z,78.50
2019-04-30T09:11:35.485Z,79.40
2019-04-30T09:14:03.007Z,79.60
2019-04-30T09:16:32.845Z,78.30
2019-04-30T09:19:03.842Z,79.60
2019-04-30T09:21:33.674Z,79.40
2019-04-30T09:24:03.438Z,79.40
2019-04-30T09:26:33.239Z,79.40
2019-04-30T09:29:03.073Z,80.40
2019-04-30T09:31:34.818Z,79.00
2019-04-30T09:34:15.164Z,78.70
2019-04-30T09:36:39.158Z,79.60
2019-04-30T09:39:09.240Z,77.00
2019-04-30T09:41:41.024Z,77.10
2019-04-30T09:44:10.569Z,77.30
2019-04-30T09:46:40.407Z,77.70
2019-04-30T09:49:11.653Z,77.40
2019-04-30T09:51:45.497Z,77.70
2019-04-30T09:54:15.575Z,79.10
2019-04-30T09:56:45.543Z,79.70
2019-04-30T09:59:18.838Z,79.10
2019-04-30T10:01:46.499Z,79.60
2019-04-30T10:04:16.514Z,79.40
2019-04-30T10:06:49.920Z,79.20
2019-04-30T10:09:19.375Z,78.60
2019-04-30T10:12:13.781Z,79.60
2019-04-30T10:14:43.711Z,80.10
2019-04-30T10:17:28.842Z,78.20
2019-04-30T10:19:58.606Z,77.40
2019-04-30T10:22:28.366Z,77.50
2019-04-30T10:25:00.905Z,78.00
2019-04-30T10:27:30.721Z,78.50
2019-04-30T10:30:00.842Z,78.20
2019-04-30T10:32:30.840Z,78.10
2019-04-30T10:35:00.693Z,79.20
2019-04-30T10:37:30.496Z,78.80
2019-04-30T10:40:00.469Z,79.60
2019-04-30T10:42:34.396Z,78.90
2019-04-30T10:45:01.758Z,79.50
2019-04-30T10:47:32.712Z,79.90
2019-04-30T10:50:02.617Z,79.20
2019-04-30T10:52:32.437Z,78.80
2019-04-30T10:55:04.830Z,79.20
2019-04-30T10:57:34.616Z,78.20
2019-04-30T11:00:07.751Z,77.50
2019-04-30T11:02:38.626Z,76.90
2019-04-30T11:05:10.615Z,77.50
2019-04-30T11:07:40.388Z,77.10
2019-04-30T11:10:10.577Z,77.70
2019-04-30T11:12:41.618Z,77.70
2019-04-30T11:15:11.613Z,77.90
2019-04-30T11:17:41.483Z,78.00
2019-04-30T11:20:11.601Z,77.10
2019-04-30T11:22:41.693Z,78.30
2019-04-30T11:25:11.988Z,79.20
2019-04-30T11:27:47.327Z,78.60
2019-04-30T11:30:23.899Z,79.60
2019-04-30T11:32:51.022Z,79.90
2019-04-30T11:35:21.121Z,80.10
2019-04-30T11:37:50.862Z,79.20
2019-04-30T11:40:34.260Z,79.90
2019-04-30T11:43:01.308Z,78.30
2019-04-30T11:46:28.565Z,78.80
2019-04-30T11:48:58.706Z,78.00
2019-04-30T11:51:29.510Z,78.90
2019-04-30T11:53:59.495Z,77.80
2019-04-30T11:56:29.286Z,77.40
2019-04-30T11:58:59.065Z,77.60
2019-04-30T12:01:30.643Z,78.30
2019-04-30T12:04:00.428Z,78.80
2019-04-30T12:06:30.288Z,79.30
2019-04-30T12:09:10.077Z,79.80
2019-04-30T12:11:42.291Z,80.10
2019-04-30T12:14:14.352Z,80.00
2019-04-30T12:16:44.125Z,79.40
2019-04-30T12:19:13.971Z,80.50
2019-04-30T12:21:43.707Z,80.30
2019-04-30T12:24:13.468Z,80.00
2019-04-30T12:26:43.266Z,79.60
2019-04-30T12:29:13.005Z,78.80
2019-04-30T12:31:42.684Z,78.10
2019-04-30T12:34:12.440Z,79.00
2019-04-30T12:36:42.265Z,78.60
2019-04-30T12:39:12.144Z,78.70
2019-04-30T12:41:41.888Z,78.70
2019-04-30T12:44:11.648Z,78.60
2019-04-30T12:46:41.347Z,78.00
2019-04-30T12:49:14.306Z,78.40
2019-04-30T12:52:12.058Z,78.20
2019-04-30T12:55:15.329Z,78.40
2019-04-30T12:57:55.551Z,77.10
2019-04-30T13:00:19.353Z,76.70
2019-04-30T13:02:49.094Z,76.50
2019-04-30T13:05:19.809Z,77.70
2019-04-30T13:07:50.485Z,77.60
2019-04-30T13:10:22.873Z,78.30
2019-04-30T13:12:53.377Z,78.20
2019-04-30T13:15:23.520Z,77.30
2019-04-30T13:17:56.084Z,77.20
2019-04-30T13:20:29.142Z,77.50
2019-04-30T13:22:58.929Z,77.60
2019-04-30T13:25:35.220Z,77.30
2019-04-30T13:28:05.037Z,77.50
2019-04-30T13:30:37.233Z,77.40
2019-04-30T13:33:22.083Z,77.60
2019-04-30T13:35:51.893Z,77.60
2019-04-30T13:38:47.190Z,77.20
2019-04-30T13:41:33.154Z,77.50
2019-04-30T13:44:06.388Z,77.10
2019-04-30T13:46:36.257Z,77.30
2019-04-30T13:49:08.713Z,77.40
2019-04-30T13:51:38.454Z,77.70
2019-04-30T13:54:08.273Z,78.20
2019-04-30T13:56:39.755Z,77.50
2019-04-30T13:59:09.579Z,77.50
2019-04-30T14:01:39.304Z,77.30
2019-04-30T14:04:27.979Z,77.60
2019-04-30T14:07:19.340Z,77.50
2019-04-30T14:09:49.190Z,77.40
2019-04-30T14:12:18.964Z,77.50
2019-04-30T14:14:50.937Z,78.00
2019-04-30T14:17:20.734Z,77.90
2019-04-30T14:19:50.479Z,78.20
2019-04-30T14:22:20.202Z,78.50
2019-04-30T14:24:50.064Z,78.80
2019-04-30T14:27:19.837Z,78.30
2019-04-30T14:29:49.644Z,78.60
2019-04-30T14:32:19.450Z,78.80
2019-04-30T14:34:50.714Z,78.50
2019-04-30T14:37:20.670Z,78.40
2019-04-30T14:39:50.943Z,78.30
2019-04-30T14:42:24.248Z,77.90
2019-04-30T14:45:04.068Z,78.10
2019-04-30T14:47:42.318Z,78.80
2019-04-30T14:50:18.459Z,79.20
2019-04-30T14:53:06.962Z,78.40
2019-04-30T14:56:08.495Z,77.90
2019-04-30T14:58:54.737Z,78.40
2019-04-30T15:01:39.564Z,77.60
2019-04-30T15:04:09.446Z,77.40
2019-04-30T15:06:39.174Z,77.90
2019-04-30T15:09:09.473Z,79.30
2019-04-30T15:11:39.309Z,79.60
2019-04-30T15:14:11.586Z,79.70
2019-04-30T15:16:41.325Z,78.50
2019-04-30T15:19:13.846Z,80.00
2019-04-30T15:21:43.626Z,79.70
2019-04-30T15:24:26.086Z,79.50
2019-04-30T15:26:58.788Z,79.50
2019-04-30T15:29:29.021Z,79.40
2019-04-30T15:32:00.355Z,79.60
2019-04-30T15:34:30.121Z,78.80
2019-04-30T15:36:59.919Z,79.20
2019-04-30T15:39:41.596Z,79.10
2019-04-30T15:42:12.531Z,79.60
2019-04-30T15:44:47.234Z,79.70
2019-04-30T15:47:19.661Z,78.70
2019-04-30T15:49:49.493Z,79.40
2019-04-30T15:52:19.265Z,79.60
2019-04-30T15:54:49.138Z,79.40
2019-04-30T15:57:22.769Z,79.30
2019-04-30T15:59:52.590Z,80.20
2019-04-30T16:02:24.742Z,79.50
2019-04-30T16:05:15.453Z,79.10
2019-04-30T16:08:04.067Z,79.50
2019-04-30T16:11:07.234Z,79.00
2019-04-30T16:13:56.009Z,78.90
2019-04-30T16:16:30.065Z,78.70
2019-04-30T16:18:59.857Z,78.50
2019-04-30T16:21:29.637Z,77.90
2019-04-30T16:23:59.456Z,78.00
2019-04-30T16:26:29.730Z,78.60
2019-04-30T16:29:03.373Z,78.80
2019-04-30T16:31:33.642Z,79.30
2019-04-30T16:34:06.619Z,79.40
2019-04-30T16:36:45.498Z,79.10
2019-04-30T16:39:15.302Z,79.00
2019-04-30T16:41:45.086Z,79.00
2019-04-30T16:44:14.992Z,79.10
2019-04-30T16:46:44.751Z,79.30
2019-04-30T16:49:14.567Z,79.70
2019-04-30T16:51:50.027Z,79.40
2019-04-30T17:52:08.900Z,81.00
2019-04-30T17:54:38.694Z,81.70
2019-04-30T17:57:10.449Z,82.10
2019-04-30T17:59:43.177Z,82.30
2019-04-30T18:02:14.698Z,82.20
2019-04-30T18:04:44.567Z,82.10
2019-04-30T18:07:14.272Z,82.40
2019-04-30T18:09:44.004Z,82.20
2019-04-30T18:12:13.794Z,82.50
2019-04-30T18:14:43.581Z,82.40
2019-04-30T18:17:15.412Z,82.70
2019-04-30T18:20:19.229Z,82.90
2019-04-30T18:23:25.825Z,83.00
2019-04-30T18:25:59.791Z,83.30
2019-04-30T18:28:29.564Z,83.00
2019-04-30T18:30:59.354Z,82.90
2019-04-30T18:33:29.154Z,83.20
2019-04-30T18:35:59.674Z,83.40
2019-04-30T18:38:31.078Z,83.70
2019-04-30T18:41:02.731Z,83.80
2019-04-30T18:43:32.575Z,83.70
2019-04-30T18:46:02.493Z,83.60
2019-04-30T18:48:32.290Z,83.60
2019-04-30T18:51:15.977Z,83.70
2019-04-30T18:53:35.249Z,83.90
2019-04-30T18:56:08.190Z,84.00
2019-04-30T18:58:40.608Z,84.20
2019-04-30T19:01:11.302Z,84.30
2019-04-30T19:03:41.058Z,84.40
2019-04-30T19:06:22.968Z,84.30
2019-04-30T19:08:53.733Z,84.30
2019-04-30T19:11:31.348Z,84.50
2019-04-30T19:14:15.046Z,84.40
2019-04-30T19:17:02.316Z,84.30
2019-04-30T19:19:46.833Z,84.40
2019-04-30T19:22:18.590Z,84.40
2019-04-30T19:24:58.193Z,84.50
2019-04-30T19:27:19.482Z,84.70
2019-04-30T19:29:51.585Z,85.10
2019-04-30T19:32:20.881Z,85.30
2019-04-30T19:34:50.633Z,85.30
2019-04-30T19:37:32.457Z,85.30
2019-04-30T19:40:02.084Z,85.40
2019-04-30T19:42:32.077Z,85.40
2019-04-30T19:45:12.547Z,85.40
2019-04-30T19:47:42.477Z,85.40
2019-04-30T19:50:14.094Z,85.40
2019-04-30T19:52:43.916Z,85.20
2019-04-30T19:55:13.855Z,85.10
2019-04-30T19:57:43.676Z,84.80
2019-04-30T20:00:14.553Z,84.50
2019-04-30T20:02:44.372Z,84.60
2019-04-30T20:05:14.356Z,84.80
2019-04-30T20:07:44.334Z,85.10
2019-04-30T20:10:15.444Z,85.20
2019-04-30T20:12:45.222Z,85.30
2019-04-30T20:15:22.188Z,85.30
2019-04-30T20:17:53.250Z,85.30
2019-04-30T20:20:23.076Z,85.10
2019-04-30T20:22:52.874Z,84.80
2019-04-30T20:25:22.625Z,84.50
2019-04-30T20:28:00.103Z,84.50
2019-04-30T20:30:31.333Z,84.50
2019-04-30T20:33:01.101Z,84.50
2019-04-30T20:35:30.868Z,84.60
2019-04-30T20:38:20.163Z,84.90
2019-04-30T20:40:59.885Z,85.20
2019-04-30T20:43:22.540Z,85.30
2019-04-30T20:45:52.521Z,85.40
2019-04-30T20:48:22.266Z,85.40
2019-04-30T20:50:52.113Z,85.40
2019-04-30T20:53:21.897Z,85.40
2019-04-30T20:55:51.741Z,85.50
2019-04-30T20:58:21.504Z,85.70
2019-04-30T21:01:01.189Z,85.70
2019-04-30T21:03:22.882Z,85.60
2019-04-30T21:05:52.653Z,85.70
2019-04-30T21:08:22.417Z,85.80
2019-04-30T21:10:52.249Z,85.90
2019-04-30T21:13:22.042Z,86.10
2019-04-30T21:15:51.821Z,86.20
2019-04-30T21:18:22.667Z,86.10
2019-04-30T21:20:52.556Z,85.90
2019-04-30T21:23:22.335Z,85.80
2019-04-30T21:25:52.145Z,86.00
2019-04-30T21:28:21.956Z,86.20
2019-04-30T21:30:51.758Z,86.60
2019-04-30T21:33:41.208Z,86.60
2019-04-30T21:36:22.683Z,86.50
2019-04-30T21:38:52.520Z,86.70
2019-04-30T21:41:22.602Z,87.00
2019-04-30T21:43:52.857Z,87.10
2019-04-30T21:46:22.720Z,86.90
2019-04-30T21:48:52.514Z,86.80
2019-04-30T21:51:23.597Z,87.10
2019-04-30T21:53:53.542Z,87.10
2019-04-30T21:56:23.368Z,87.10
2019-04-30T21:58:53.288Z,87.60
2019-04-30T22:01:26.666Z,87.50
2019-04-30T22:03:56.609Z,87.60
2019-04-30T22:06:29.433Z,87.30
2019-04-30T22:08:58.803Z,87.30
2019-04-30T22:11:29.618Z,87.50
2019-04-30T22:13:59.739Z,87.70
2019-04-30T22:16:29.789Z,87.80
2019-04-30T22:19:00.877Z,88.10
2019-04-30T22:21:30.673Z,88.40
2019-04-30T22:24:00.453Z,88.10
2019-04-30T22:26:31.447Z,88.00
2019-04-30T22:29:01.238Z,87.70
2019-04-30T22:31:31.032Z,87.70
2019-04-30T22:34:00.826Z,87.90
2019-04-30T22:36:38.807Z,88.30
2019-04-30T22:39:23.856Z,88.30
2019-04-30T22:42:19.090Z,88.30
2019-04-30T22:44:50.773Z,88.30
2019-04-30T22:47:20.512Z,88.30
2019-04-30T22:49:50.349Z,88.40
2019-04-30T22:52:21.873Z,88.40
2019-04-30T22:54:51.695Z,88.40
2019-04-30T22:57:21.501Z,88.30
2019-04-30T22:59:51.332Z,88.40
2019-04-30T23:02:46.109Z,88.50
2019-04-30T23:05:17.152Z,88.60
2019-04-30T23:07:49.734Z,88.60
2019-04-30T23:10:19.602Z,88.50
2019-04-30T23:12:49.487Z,88.30
2019-04-30T23:15:21.342Z,88.40
2019-04-30T23:17:51.083Z,88.40
2019-04-30T23:20:20.817Z,88.50
2019-04-30T23:22:50.667Z,88.70
2019-04-30T23:25:20.436Z,88.90
2019-04-30T23:27:50.164Z,89.40
2019-04-30T23:30:20.065Z,89.50
2019-04-30T23:32:49.876Z,89.40
2019-04-30T23:35:19.685Z,89.60
2019-04-30T23:37:49.505Z,89.70
2019-04-30T23:40:28.165Z,89.40
2019-04-30T23:42:57.920Z,89.20
2019-04-30T23:45:27.785Z,89.20
2019-04-30T23:47:57.629Z,89.20
2019-04-30T23:50:27.389Z,89.20
2019-04-30T23:52:57.149Z,89.10
2019-04-30T23:55:26.962Z,89.20
2019-04-30T23:57:56.740Z,89.30
